Time;durP1;ratioP1;P1;durP2;ratioP2;P2;SDS_P1;SDS_P2;PMS_P1;PMS_P2;Temp;Humidity;BMP_temperature;BMP_pressure;BME280_temperature;BME280_humidity;BME280_pressure;Samples;Min_cycle;Max_cycle;Signal;HPM_P1;HPM_P2
2024/02/10 00:00:21;;;;;;;15.30;13.70;;;9.80;42.10;;;;;;5011879;28;20175;-68
2024/02/10 00:02:48;;;;;;;16.70;13.93;;;9.80;42.10;;;;;;4994687;28;20411;-69
2024/02/10 00:05:15;;;;;;;16.90;14.00;;;9.70;42.00;;;;;;5011472;28;20821;-69
2024/02/10 00:07:42;;;;;;;15.83;13.00;;;9.70;42.90;;;;;;5011310;28;20425;-69
2024/02/10 00:10:08;;;;;;;16.17;12.13;;;9.60;42.90;;;;;;5011768;28;20426;-69
2024/02/10 00:12:33;;;;;;;19.57;15.17;;;9.60;44.90;;;;;;5011574;28;20419;-70
2024/02/10 00:15:00;;;;;;;18.17;15.50;;;9.60;45.70;;;;;;5011421;28;20445;-68
2024/02/10 00:17:26;;;;;;;19.23;13.70;;;9.60;45.20;;;;;;5011098;28;20234;-68
2024/02/10 00:19:55;;;;;;;17.17;13.23;;;9.50;45.60;;;;;;5011302;28;20415;-68
2024/02/10 00:22:24;;;;;;;16.17;13.03;;;9.60;46.30;;;;;;5011284;28;20419;-67
2024/02/10 00:24:50;;;;;;;14.67;12.93;;;9.60;47.00;;;;;;5009871;28;20554;-68
2024/02/10 00:27:16;;;;;;;18.47;15.53;;;9.70;46.10;;;;;;5011148;28;20451;-68
2024/02/10 00:29:46;;;;;;;18.47;14.60;;;9.70;45.30;;;;;;5011498;28;20449;-68
2024/02/10 00:32:14;;;;;;;20.97;14.97;;;9.60;45.60;;;;;;5011480;28;20419;-68
2024/02/10 00:34:41;;;;;;;15.97;14.03;;;9.60;47.00;;;;;;5013487;28;20459;-68
2024/02/10 00:37:10;;;;;;;16.90;12.73;;;9.60;48.30;;;;;;5014961;28;20502;-69
2024/02/10 00:39:35;;;;;;;15.10;12.47;;;9.70;48.70;;;;;;5015105;28;20461;-69
2024/02/10 00:42:01;;;;;;;19.53;13.70;;;9.70;47.10;;;;;;4997304;28;20945;-68
2024/02/10 00:44:30;;;;;;;19.40;14.60;;;9.80;44.70;;;;;;5015026;28;20294;-68
2024/02/10 00:46:57;;;;;;;16.27;12.53;;;9.80;45.30;;;;;;5014810;28;20231;-68
2024/02/10 00:49:26;;;;;;;16.97;13.87;;;9.80;44.50;;;;;;5015189;28;20403;-68
2024/02/10 00:51:55;;;;;;;16.23;13.60;;;9.90;45.20;;;;;;5014869;28;20413;-68
2024/02/10 00:54:27;;;;;;;18.77;13.97;;;9.90;45.00;;;;;;5014864;28;20809;-67
2024/02/10 00:56:53;;;;;;;16.70;14.40;;;10.00;44.10;;;;;;5014483;28;20928;-68
2024/02/10 00:59:22;;;;;;;15.97;14.10;;;10.00;46.40;;;;;;5014648;28;20466;-68
2024/02/10 01:01:52;;;;;;;18.40;14.90;;;10.00;46.80;;;;;;5014712;28;20411;-69
2024/02/10 01:04:21;;;;;;;18.83;13.60;;;10.00;47.00;;;;;;5014656;28;20423;-68
2024/02/10 01:06:48;;;;;;;17.27;13.90;;;10.00;50.40;;;;;;4996781;28;20795;-68
2024/02/10 01:09:17;;;;;;;17.33;14.80;;;10.10;50.60;;;;;;5014454;28;20434;-68
2024/02/10 01:11:43;;;;;;;16.67;13.93;;;10.00;47.70;;;;;;5014879;28;20902;-67
2024/02/10 01:14:10;;;;;;;18.33;13.10;;;10.00;47.30;;;;;;5014324;28;20418;-68
2024/02/10 01:16:36;;;;;;;22.27;14.03;;;9.90;48.90;;;;;;5082944;22;20524;-68
2024/02/10 01:19:03;;;;;;;18.50;14.43;;;9.90;48.40;;;;;;5035312;28;20638;-69
2024/02/10 01:21:29;;;;;;;18.03;13.80;;;9.90;50.50;;;;;;5037025;28;20410;-69
2024/02/10 01:23:57;;;;;;;14.40;12.90;;;9.80;49.30;;;;;;5037615;28;20916;-68
2024/02/10 01:26:22;;;;;;;16.97;13.40;;;9.70;52.00;;;;;;5038154;28;20426;-69
2024/02/10 01:28:48;;;;;;;15.37;13.43;;;9.60;54.00;;;;;;5036213;28;20433;-69
2024/02/10 01:31:15;;;;;;;16.70;12.23;;;9.60;55.50;;;;;;5038650;28;20244;-70
2024/02/10 01:33:41;;;;;;;17.57;14.17;;;9.60;54.30;;;;;;5039114;28;20202;-70
2024/02/10 01:36:09;;;;;;;14.90;13.27;;;9.50;54.90;;;;;;5038652;28;20843;-68
2024/02/10 01:38:42;;;;;;;14.87;12.20;;;9.50;55.00;;;;;;5038482;28;20257;-68
2024/02/10 01:41:12;;;;;;;15.63;13.50;;;9.50;55.30;;;;;;5037468;28;20414;-69
2024/02/10 01:43:38;;;;;;;16.83;14.30;;;9.50;54.70;;;;;;5037549;28;20417;-68
2024/02/10 01:46:12;;;;;;;17.93;13.33;;;9.50;53.20;;;;;;5036920;28;20430;-68
2024/02/10 01:48:39;;;;;;;18.13;13.67;;;9.40;53.00;;;;;;5037893;28;20416;-69
2024/02/10 01:51:05;;;;;;;17.40;14.50;;;9.40;53.50;;;;;;5038852;28;20423;-69
2024/02/10 01:53:31;;;;;;;16.53;14.40;;;9.50;55.50;;;;;;5039061;28;20414;-69
2024/02/10 01:55:58;;;;;;;18.13;14.43;;;9.30;57.10;;;;;;5038790;28;20430;-69
2024/02/10 01:58:24;;;;;;;18.73;14.20;;;9.30;58.80;;;;;;5036501;28;20464;-69
2024/02/10 02:00:50;;;;;;;18.73;12.33;;;9.30;56.00;;;;;;5035920;28;20533;-68
2024/02/10 02:03:16;;;;;;;18.30;14.00;;;9.20;56.80;;;;;;5034415;28;20512;-68
2024/02/10 02:05:43;;;;;;;18.17;13.97;;;9.10;56.20;;;;;;5034379;28;20528;-69
2024/02/10 02:08:11;;;;;;;18.00;14.03;;;9.10;56.10;;;;;;5034463;28;20185;-69
2024/02/10 02:10:37;;;;;;;19.27;13.83;;;9.00;55.60;;;;;;5033494;28;20430;-69
2024/02/10 02:13:03;;;;;;;22.37;15.60;;;8.90;56.40;;;;;;5035462;28;20651;-68
2024/02/10 02:15:30;;;;;;;15.27;12.67;;;8.80;56.50;;;;;;5035643;28;20456;-68
2024/02/10 02:17:59;;;;;;;19.60;15.53;;;8.80;57.40;;;;;;5035314;28;20467;-69
2024/02/10 02:20:25;;;;;;;23.33;13.43;;;8.70;55.80;;;;;;5036618;28;20464;-68
2024/02/10 02:22:52;;;;;;;22.23;14.37;;;8.60;57.90;;;;;;5037004;28;20507;-68
2024/02/10 02:25:18;;;;;;;17.53;13.10;;;8.60;58.70;;;;;;5036313;28;20463;-69
2024/02/10 02:27:44;;;;;;;20.40;14.80;;;8.60;60.90;;;;;;5036146;28;20405;-69
2024/02/10 02:30:11;;;;;;;15.53;13.30;;;8.50;60.70;;;;;;5036522;28;20437;-70
2024/02/10 02:32:36;;;;;;;17.70;13.87;;;8.50;60.90;;;;;;5034640;28;20205;-69
2024/02/10 02:35:09;;;;;;;16.90;14.67;;;8.50;58.20;;;;;;5036816;28;20921;-69
2024/02/10 02:37:36;;;;;;;19.77;14.43;;;8.40;51.50;;;;;;5037379;28;20198;-70
2024/02/10 02:40:06;;;;;;;19.53;15.00;;;8.40;53.40;;;;;;5037551;28;20430;-69
2024/02/10 02:42:32;;;;;;;19.30;14.20;;;8.40;53.40;;;;;;5038296;28;20417;-69
2024/02/10 02:44:59;;;;;;;20.20;13.60;;;7.90;56.80;;;;;;5038316;28;20410;-69
2024/02/10 02:47:25;;;;;;;20.80;14.30;;;8.50;54.30;;;;;;5036330;28;20418;-70
2024/02/10 02:49:51;;;;;;;19.10;14.13;;;8.50;53.30;;;;;;5036278;28;20469;-69
2024/02/10 02:52:16;;;;;;;19.07;13.03;;;8.50;52.20;;;;;;5035177;28;20937;-69
2024/02/10 02:54:42;;;;;;;20.83;14.77;;;8.50;52.60;;;;;;5035034;28;20185;-70
2024/02/10 02:57:08;;;;;;;17.33;13.13;;;8.50;52.60;;;;;;5035217;28;20198;-68
2024/02/10 02:59:34;;;;;;;17.67;14.07;;;8.50;52.90;;;;;;5039354;28;20465;-68
2024/02/10 03:02:02;;;;;;;16.90;12.60;;;8.50;52.90;;;;;;5038593;28;20258;-70
2024/02/10 03:04:27;;;;;;;19.50;13.53;;;8.50;52.80;;;;;;5035052;28;20201;-70
2024/02/10 03:06:54;;;;;;;17.47;13.10;;;8.50;52.60;;;;;;5033470;28;20433;-70
2024/02/10 03:09:20;;;;;;;14.10;10.53;;;8.50;52.30;;;;;;5034931;28;20183;-70
2024/02/10 03:11:45;;;;;;;14.57;10.53;;;8.50;51.90;;;;;;5028823;28;20459;-70
2024/02/10 03:14:11;;;;;;;13.53;11.17;;;8.60;54.10;;;;;;5020441;28;20195;-70
2024/02/10 03:16:38;;;;;;;14.50;11.80;;;8.40;51.00;;;;;;5014101;28;20580;-70
2024/02/10 03:19:05;;;;;;;17.47;10.40;;;8.50;54.20;;;;;;5014974;28;20241;-70
2024/02/10 03:21:37;;;;;;;10.07;8.83;;;8.40;53.90;;;;;;5014355;28;20422;-70
2024/02/10 03:24:03;;;;;;;12.63;9.37;;;8.40;52.20;;;;;;5015106;28;20407;-71
2024/02/10 03:26:36;;;;;;;10.70;8.10;;;8.30;54.10;;;;;;5013968;28;20533;-71
2024/02/10 03:29:02;;;;;;;11.20;9.10;;;8.30;54.20;;;;;;5014929;28;20415;-71
2024/02/10 03:31:28;;;;;;;11.27;8.87;;;8.20;53.20;;;;;;5015870;28;20861;-70
2024/02/10 03:33:54;;;;;;;10.80;7.93;;;8.20;50.80;;;;;;5016012;28;20428;-69
2024/02/10 03:36:19;;;;;;;15.90;9.00;;;8.20;54.70;;;;;;5017280;28;20234;-71
2024/02/10 03:38:45;;;;;;;11.10;7.83;;;8.10;53.70;;;;;;5016302;28;20472;-70
2024/02/10 03:41:13;;;;;;;11.83;9.80;;;8.10;54.80;;;;;;5013444;28;20206;-70
2024/02/10 03:43:39;;;;;;;8.87;6.80;;;8.10;53.20;;;;;;5015992;28;20417;-69
2024/02/10 03:46:05;;;;;;;9.77;7.73;;;8.20;53.10;;;;;;5014862;28;20975;-71
2024/02/10 03:48:30;;;;;;;11.40;8.00;;;8.20;55.60;;;;;;5014503;28;20792;-71
2024/02/10 03:50:56;;;;;;;9.00;7.60;;;8.20;52.70;;;;;;5014414;28;20191;-74
2024/02/10 03:53:24;;;;;;;11.30;7.17;;;8.10;52.00;;;;;;5014793;28;20187;-70
2024/02/10 03:55:53;;;;;;;11.50;8.00;;;8.10;55.00;;;;;;5014627;28;20199;-70
2024/02/10 03:58:19;;;;;;;11.00;8.03;;;8.00;54.00;;;;;;5014185;28;20457;-71
2024/02/10 04:00:44;;;;;;;10.40;7.63;;;8.00;52.60;;;;;;5014104;28;20444;-71
2024/02/10 04:03:11;;;;;;;9.90;7.40;;;8.00;53.90;;;;;;5013966;28;20217;-70
2024/02/10 04:05:39;;;;;;;10.30;8.30;;;8.00;57.60;;;;;;5013255;28;20222;-69
2024/02/10 04:08:09;;;;;;;9.87;7.80;;;8.10;55.80;;;;;;5013851;28;20415;-70
2024/02/10 04:10:35;;;;;;;13.83;9.50;;;8.10;57.20;;;;;;5016848;28;20807;-70
2024/02/10 04:13:02;;;;;;;11.93;8.30;;;8.00;50.60;;;;;;5017577;28;20417;-71
2024/02/10 04:15:27;;;;;;;9.83;7.40;;;8.00;50.80;;;;;;5017115;28;20203;-71
2024/02/10 04:17:55;;;;;;;10.67;7.93;;;8.10;50.80;;;;;;5016964;28;20457;-70
2024/02/10 04:20:22;;;;;;;22.93;8.13;;;8.00;51.00;;;;;;5017558;28;20189;-71
2024/02/10 04:22:49;;;;;;;10.60;7.17;;;7.90;58.40;;;;;;5017503;28;20437;-70
2024/02/10 04:25:14;;;;;;;8.93;7.60;;;7.80;54.70;;;;;;5016018;28;20442;-71
2024/02/10 04:27:43;;;;;;;11.77;8.40;;;7.90;56.50;;;;;;5015811;28;20437;-70
2024/02/10 04:30:10;;;;;;;9.90;7.23;;;7.70;54.90;;;;;;5015494;28;20196;-71
2024/02/10 04:32:42;;;;;;;8.17;7.00;;;7.80;53.50;;;;;;5015497;28;20428;-71
2024/02/10 04:35:09;;;;;;;9.40;7.20;;;7.80;51.60;;;;;;5016409;28;20445;-69
2024/02/10 04:37:35;;;;;;;10.23;6.93;;;7.80;54.90;;;;;;5016445;28;20483;-71
2024/02/10 04:40:02;;;;;;;9.83;8.07;;;7.80;50.50;;;;;;5016418;28;20437;-70
2024/02/10 04:42:28;;;;;;;12.03;7.67;;;7.80;51.30;;;;;;5016705;28;20549;-71
2024/02/10 04:44:54;;;;;;;10.20;7.60;;;7.80;50.50;;;;;;5016283;28;20783;-70
2024/02/10 04:47:19;;;;;;;11.00;8.07;;;7.90;53.00;;;;;;5015417;28;20484;-70
2024/02/10 04:49:45;;;;;;;8.67;6.97;;;7.90;54.50;;;;;;5017266;28;20175;-70
2024/02/10 04:52:11;;;;;;;9.70;7.93;;;8.00;52.90;;;;;;5016266;28;20520;-70
2024/02/10 04:54:36;;;;;;;10.60;7.13;;;8.00;57.40;;;;;;5018049;28;20187;-71
2024/02/10 04:57:03;;;;;;;8.57;7.67;;;8.00;58.70;;;;;;5016802;28;20191;-71
2024/02/10 04:59:29;;;;;;;9.00;6.50;;;8.00;56.10;;;;;;5016909;28;20213;-71
2024/02/10 05:01:56;;;;;;;10.87;7.10;;;8.00;59.10;;;;;;5015150;28;20776;-71
2024/02/10 05:04:22;;;;;;;10.93;6.83;;;8.00;49.50;;;;;;5014800;28;20253;-71
2024/02/10 05:06:48;;;;;;;8.83;6.57;;;;;;;;;;5015439;28;20477;-70
2024/02/10 05:09:14;;;;;;;8.47;6.30;;;8.00;44.50;;;;;;5016189;28;20428;-69
2024/02/10 05:11:41;;;;;;;8.47;6.37;;;8.10;47.90;;;;;;5015645;28;20422;-69
2024/02/10 05:14:11;;;;;;;10.90;7.10;;;;;;;;;;5015655;28;20873;-69
2024/02/10 05:16:37;;;;;;;9.93;6.90;;;8.10;44.10;;;;;;5016437;28;20822;-70
2024/02/10 05:19:03;;;;;;;9.60;6.17;;;8.10;44.90;;;;;;5016006;28;20461;-70
2024/02/10 05:21:31;;;;;;;9.00;6.10;;;8.20;44.80;;;;;;5015398;28;20421;-70
2024/02/10 05:23:59;;;;;;;9.30;6.53;;;8.10;42.10;;;;;;5017493;28;20449;-69
2024/02/10 05:26:36;;;;;;;10.43;5.80;;;8.10;42.60;;;;;;5016848;28;20572;-70
2024/02/10 05:29:06;;;;;;;9.57;6.60;;;7.90;43.20;;;;;;5016644;28;20420;-70
2024/02/10 05:31:36;;;;;;;10.50;7.63;;;7.80;44.80;;;;;;5015776;28;20422;-70
2024/02/10 05:34:05;;;;;;;11.27;8.13;;;7.80;47.00;;;;;;5015615;28;20428;-69
2024/02/10 05:36:34;;;;;;;11.23;8.07;;;7.80;47.70;;;;;;5015978;28;20445;-69
2024/02/10 05:39:04;;;;;;;11.60;9.77;;;7.90;49.30;;;;;;5014417;28;20504;-69
2024/02/10 05:41:30;;;;;;;12.37;9.63;;;7.90;49.40;;;;;;5014123;28;20422;-69
2024/02/10 05:43:55;;;;;;;13.60;11.27;;;8.00;50.30;;;;;;5015495;28;21046;-69
2024/02/10 05:46:21;;;;;;;15.90;10.60;;;8.00;50.70;;;;;;5014598;28;20567;-71
2024/02/10 05:48:50;;;;;;;13.87;10.30;;;8.00;49.00;;;;;;5015641;28;20183;-69
2024/02/10 05:51:17;;;;;;;14.90;10.80;;;8.10;53.00;;;;;;5015441;28;20568;-70
2024/02/10 05:53:49;;;;;;;14.23;11.10;;;;;;;;;;5014193;28;20422;-70
2024/02/10 05:56:15;;;;;;;14.53;10.43;;;8.10;48.70;;;;;;5014165;28;20439;-70
2024/02/10 05:58:42;;;;;;;12.37;7.90;;;8.20;48.30;;;;;;5016803;28;20465;-71
2024/02/10 06:01:10;;;;;;;12.87;7.77;;;8.20;47.00;;;;;;5015016;28;20413;-69
2024/02/10 06:03:36;;;;;;;10.40;8.20;;;8.20;46.20;;;;;;5014561;28;20412;-69
2024/02/10 06:06:05;;;;;;;9.07;6.30;;;8.10;44.40;;;;;;5014761;28;20552;-70
2024/02/10 06:08:31;;;;;;;9.50;6.00;;;8.10;45.80;;;;;;5014006;28;20429;-70
2024/02/10 06:10:58;;;;;;;8.30;6.70;;;8.10;45.80;;;;;;5014399;28;20510;-70
2024/02/10 06:13:27;;;;;;;8.57;6.47;;;8.10;45.30;;;;;;5014256;28;20476;-70
2024/02/10 06:15:54;;;;;;;9.27;7.00;;;8.10;45.80;;;;;;5013732;28;20587;-70
2024/02/10 06:18:19;;;;;;;7.63;5.23;;;8.10;44.90;;;;;;5013996;28;20463;-71
2024/02/10 06:20:45;;;;;;;6.33;5.20;;;8.00;43.70;;;;;;5012616;28;20422;-70
2024/02/10 06:23:11;;;;;;;8.03;5.30;;;8.00;42.90;;;;;;5013622;28;20175;-70
2024/02/10 06:25:36;;;;;;;11.17;5.83;;;8.00;43.00;;;;;;5014074;28;20257;-69
2024/02/10 06:28:02;;;;;;;7.23;5.70;;;7.90;43.40;;;;;;5013328;28;20186;-68
2024/02/10 06:30:32;;;;;;;6.40;3.93;;;7.90;43.60;;;;;;5013520;28;20188;-67
2024/02/10 06:32:58;;;;;;;10.33;6.20;;;7.80;42.80;;;;;;5012784;28;20178;-68
2024/02/10 06:35:25;;;;;;;7.07;5.03;;;7.80;42.40;;;;;;5011993;28;20815;-67
2024/02/10 06:37:50;;;;;;;8.00;5.80;;;7.80;42.70;;;;;;5013264;28;20872;-67
2024/02/10 06:40:17;;;;;;;6.50;5.03;;;7.70;41.70;;;;;;5013618;28;20414;-68
2024/02/10 06:42:46;;;;;;;7.70;5.53;;;7.60;44.10;;;;;;5011952;28;20540;-67
2024/02/10 06:45:14;;;;;;;7.07;4.87;;;7.60;44.10;;;;;;5013510;28;20448;-67
2024/02/10 06:47:40;;;;;;;6.70;4.80;;;7.60;45.20;;;;;;5013290;28;20457;-66
2024/02/10 06:50:07;;;;;;;8.77;5.20;;;7.60;45.40;;;;;;5015339;28;20413;-67
2024/02/10 06:52:37;;;;;;;5.93;4.43;;;7.60;46.00;;;;;;5015566;28;20424;-67
2024/02/10 06:55:16;;;;;;;7.37;5.80;;;7.60;46.20;;;;;;5014605;28;20433;-67
2024/02/10 06:57:43;;;;;;;6.23;5.40;;;7.70;45.40;;;;;;5013657;28;20472;-68
2024/02/10 07:00:10;;;;;;;7.20;5.43;;;7.70;45.30;;;;;;5013685;28;20475;-67
2024/02/10 07:02:41;;;;;;;8.33;5.63;;;7.80;45.50;;;;;;5013783;28;20425;-68
2024/02/10 07:05:08;;;;;;;6.50;5.33;;;7.80;45.20;;;;;;5012077;28;20512;-67
2024/02/10 07:07:34;;;;;;;8.50;6.17;;;7.80;45.50;;;;;;5013185;28;20452;-67
2024/02/10 07:10:00;;;;;;;6.47;5.60;;;7.90;45.30;;;;;;5014614;28;20418;-68
2024/02/10 07:12:28;;;;;;;7.73;6.20;;;7.90;43.90;;;;;;5014086;28;20178;-68
2024/02/10 07:14:56;;;;;;;7.30;5.03;;;8.00;43.40;;;;;;5014257;28;20238;-69
2024/02/10 07:17:22;;;;;;;7.70;5.87;;;8.00;43.20;;;;;;5049323;23;20601;-67
2024/02/10 07:19:49;;;;;;;6.30;5.27;;;8.10;42.90;;;;;;5030662;28;20440;-66
2024/02/10 07:22:18;;;;;;;6.43;4.93;;;8.00;42.90;;;;;;5031944;28;20457;-66
2024/02/10 07:24:48;;;;;;;9.03;6.03;;;7.90;44.50;;;;;;5047457;28;20460;-65
2024/02/10 07:27:17;;;;;;;11.90;7.37;;;7.90;44.20;;;;;;5031414;28;20436;-66
2024/02/10 07:29:46;;;;;;;12.97;8.90;;;8.00;44.70;;;;;;5031519;28;20880;-67
2024/02/10 07:32:13;;;;;;;13.50;9.20;;;8.00;45.60;;;;;;5031834;28;20413;-66
2024/02/10 07:34:38;;;;;;;14.17;9.47;;;8.10;44.60;;;;;;5032159;28;20420;-67
2024/02/10 07:37:04;;;;;;;12.60;9.77;;;8.10;45.40;;;;;;5023435;28;20517;-70
2024/02/10 07:39:30;;;;;;;13.27;11.23;;;8.20;46.00;;;;;;5011835;28;20543;-67
2024/02/10 07:41:56;;;;;;;13.30;10.07;;;8.20;45.80;;;;;;5011853;28;20183;-67
2024/02/10 07:44:21;;;;;;;17.00;12.13;;;8.20;45.00;;;;;;5011818;28;20206;-68
2024/02/10 07:46:47;;;;;;;14.27;11.30;;;8.30;44.90;;;;;;5014844;28;20958;-67
2024/02/10 07:49:13;;;;;;;14.77;10.87;;;8.20;45.60;;;;;;5011136;28;20179;-68
2024/02/10 07:51:42;;;;;;;16.30;12.40;;;8.30;45.90;;;;;;5021224;28;20453;-68
2024/02/10 07:54:07;;;;;;;14.73;10.60;;;8.50;45.50;;;;;;5031438;28;20418;-68
2024/02/10 07:56:33;;;;;;;11.17;9.87;;;8.50;44.30;;;;;;5031214;28;20434;-68
2024/02/10 07:59:00;;;;;;;16.10;11.83;;;8.70;43.80;;;;;;5031157;28;20221;-67
2024/02/10 08:01:26;;;;;;;15.93;11.80;;;8.80;43.60;;;;;;5031459;28;20174;-67
2024/02/10 08:03:54;;;;;;;13.30;11.37;;;8.90;42.00;;;;;;5031486;28;20421;-68
2024/02/10 08:06:32;;;;;;;15.07;11.70;;;9.00;41.50;;;;;;5031553;28;20948;-68
2024/02/10 08:09:00;;;;;;;13.30;10.70;;;9.10;41.50;;;;;;5031475;28;20441;-68
2024/02/10 08:11:27;;;;;;;8.90;8.00;;;9.20;38.70;;;;;;5031638;28;20479;-68
2024/02/10 08:13:53;;;;;;;9.47;8.10;;;9.20;35.90;;;;;;5031811;28;20414;-68
2024/02/10 08:16:21;;;;;;;11.30;8.20;;;9.20;34.00;;;;;;5031476;28;20481;-67
2024/02/10 08:18:50;;;;;;;11.97;8.50;;;9.20;33.20;;;;;;5031203;28;20523;-68
2024/02/10 08:21:21;;;;;;;9.67;7.97;;;9.20;31.20;;;;;;5031570;28;20480;-67
2024/02/10 08:23:52;;;;;;;8.03;6.20;;;9.10;34.60;;;;;;5031469;28;20419;-68
2024/02/10 08:26:19;;;;;;;9.90;7.13;;;9.10;35.40;;;;;;5031386;28;20462;-67
2024/02/10 08:28:51;;;;;;;13.13;7.97;;;9.20;34.90;;;;;;5031203;28;20418;-68
2024/02/10 08:31:20;;;;;;;9.50;8.50;;;9.20;35.50;;;;;;5030903;28;20497;-68
2024/02/10 08:33:48;;;;;;;12.37;8.70;;;9.30;35.40;;;;;;5031231;28;20445;-68
2024/02/10 08:36:17;;;;;;;10.90;8.93;;;9.30;32.60;;;;;;5031032;28;20500;-67
2024/02/10 08:38:43;;;;;;;11.03;8.80;;;9.40;31.80;;;;;;5031152;28;20470;-68
2024/02/10 08:41:10;;;;;;;11.73;8.90;;;9.50;31.50;;;;;;5030375;28;20425;-68
2024/02/10 08:43:36;;;;;;;11.53;9.43;;;9.50;31.30;;;;;;5031934;28;20426;-70
2024/02/10 08:46:02;;;;;;;13.17;9.07;;;9.50;30.60;;;;;;5021584;28;20438;-68
2024/02/10 08:48:29;;;;;;;12.67;10.13;;;9.60;30.50;;;;;;5025328;28;20461;-68
2024/02/10 08:50:54;;;;;;;12.50;10.13;;;9.60;30.00;;;;;;5030786;28;20413;-68
2024/02/10 08:53:20;;;;;;;9.40;8.17;;;9.60;30.00;;;;;;5029614;28;20422;-73
2024/02/10 08:55:47;;;;;;;14.03;10.50;;;9.70;29.90;;;;;;5032943;28;20338;-68
2024/02/10 08:58:13;;;;;;;8.73;7.70;;;9.80;30.00;;;;;;5033878;28;20468;-69
2024/02/10 09:00:40;;;;;;;10.27;8.67;;;9.80;30.50;;;;;;5034888;28;20413;-69
2024/02/10 09:03:06;;;;;;;9.30;8.23;;;9.90;30.00;;;;;;5033468;28;20191;-69
2024/02/10 09:05:32;;;;;;;10.07;8.30;;;9.90;27.40;;;;;;5034560;28;20988;-69
2024/02/10 09:07:57;;;;;;;9.77;7.93;;;9.80;27.40;;;;;;5019674;28;20506;-69
2024/02/10 09:10:23;;;;;;;8.90;7.40;;;9.80;27.70;;;;;;5013133;28;20638;-68
2024/02/10 09:12:48;;;;;;;12.87;9.33;;;9.70;26.70;;;;;;5025930;28;20266;-68
2024/02/10 09:15:14;;;;;;;10.23;7.83;;;9.70;28.10;;;;;;5033930;28;20183;-68
2024/02/10 09:17:40;;;;;;;8.73;7.60;;;9.60;29.20;;;;;;5033687;28;20191;-69
2024/02/10 09:20:13;;;;;;;10.00;7.67;;;9.60;29.00;;;;;;5034130;28;20779;-69
2024/02/10 09:22:38;;;;;;;11.57;9.13;;;9.50;28.50;;;;;;5041626;28;20240;-69
2024/02/10 09:25:05;;;;;;;14.03;11.23;;;9.60;30.00;;;;;;5026442;28;20415;-69
2024/02/10 09:27:30;;;;;;;15.40;11.43;;;9.70;30.00;;;;;;5021951;28;20245;-68
2024/02/10 09:29:56;;;;;;;17.90;13.87;;;9.70;30.40;;;;;;5033966;28;20442;-69
2024/02/10 09:32:22;;;;;;;16.53;13.23;;;9.60;29.70;;;;;;5033993;28;20700;-69
2024/02/10 09:34:49;;;;;;;16.63;14.00;;;9.60;30.20;;;;;;5033960;28;20422;-70
2024/02/10 09:37:14;;;;;;;16.13;13.50;;;9.50;30.50;;;;;;5032799;28;20445;-69
2024/02/10 09:39:41;;;;;;;18.03;13.70;;;9.60;30.00;;;;;;5033638;28;20469;-70
2024/02/10 09:42:11;;;;;;;13.20;11.37;;;9.50;29.90;;;;;;5033713;28;20190;-70
2024/02/10 09:44:37;;;;;;;19.90;15.00;;;9.50;30.30;;;;;;5034408;28;20872;-70
2024/02/10 09:47:07;;;;;;;15.80;10.70;;;9.40;29.80;;;;;;5030409;28;20454;-74
2024/02/10 09:49:33;;;;;;;17.20;14.20;;;9.30;30.70;;;;;;5013862;28;20420;-70
2024/02/10 09:51:59;;;;;;;17.73;13.17;;;9.20;31.20;;;;;;5020539;28;20774;-69
2024/02/10 09:54:24;;;;;;;17.73;12.50;;;9.20;31.20;;;;;;5033288;28;20508;-69
2024/02/10 09:56:51;;;;;;;16.37;12.73;;;9.10;32.10;;;;;;5033442;28;20203;-70
2024/02/10 09:59:22;;;;;;;19.83;14.97;;;9.00;33.60;;;;;;5031751;28;20242;-70
2024/02/10 10:01:50;;;;;;;18.53;14.57;;;9.10;36.40;;;;;;5032095;28;20437;-70
2024/02/10 10:04:16;;;;;;;18.93;14.67;;;9.10;34.50;;;;;;5015699;28;20421;-69
2024/02/10 10:06:44;;;;;;;16.83;12.80;;;9.20;34.90;;;;;;5010908;28;20821;-69
2024/02/10 10:09:12;;;;;;;15.40;11.57;;;9.20;35.00;;;;;;5013110;28;20427;-70
2024/02/10 10:11:42;;;;;;;19.27;13.73;;;9.10;33.90;;;;;;5013674;28;20432;-71
2024/02/10 10:14:08;;;;;;;16.23;12.27;;;9.20;35.00;;;;;;5023738;28;20434;-67
2024/02/10 10:16:34;;;;;;;17.63;13.37;;;9.30;32.50;;;;;;5029207;28;20454;-69
2024/02/10 10:19:00;;;;;;;17.77;12.50;;;9.40;33.70;;;;;;5026952;28;20474;-69
2024/02/10 10:21:26;;;;;;;15.20;12.17;;;9.50;31.50;;;;;;5029123;28;20421;-69
2024/02/10 10:23:54;;;;;;;15.43;11.80;;;9.50;31.50;;;;;;5029095;28;20501;-69
2024/02/10 10:26:20;;;;;;;17.43;12.70;;;9.50;30.60;;;;;;5028578;28;20437;-69
2024/02/10 10:28:48;;;;;;;17.20;13.50;;;9.40;29.30;;;;;;5028690;28;20476;-68
2024/02/10 10:31:16;;;;;;;15.30;12.27;;;9.50;30.10;;;;;;5036933;28;20437;-69
2024/02/10 10:33:44;;;;;;;14.63;12.07;;;9.50;29.60;;;;;;5025718;28;20492;-68
2024/02/10 10:36:11;;;;;;;15.93;12.43;;;9.50;29.70;;;;;;5028573;28;20438;-69
2024/02/10 10:38:38;;;;;;;17.70;12.70;;;9.50;29.30;;;;;;5029275;28;20465;-70
2024/02/10 10:41:05;;;;;;;16.27;13.50;;;9.70;29.60;;;;;;5029320;28;20505;-70
2024/02/10 10:43:31;;;;;;;21.23;12.83;;;9.50;30.00;;;;;;5029947;28;20911;-69
2024/02/10 10:45:58;;;;;;;19.20;15.23;;;9.50;30.80;;;;;;5032191;28;20459;-70
2024/02/10 10:48:24;;;;;;;20.73;16.97;;;9.40;31.40;;;;;;5028084;28;20218;-70
2024/02/10 10:50:55;;;;;;;23.10;15.90;;;9.40;31.30;;;;;;5045789;28;20950;-69
2024/02/10 10:53:27;;;;;;;19.97;13.77;;;9.40;32.90;;;;;;5037255;28;20194;-70
2024/02/10 10:55:58;;;;;;;16.53;14.73;;;9.50;33.20;;;;;;5026123;28;20924;-70
2024/02/10 10:58:32;;;;;;;21.47;15.43;;;9.60;34.40;;;;;;5032628;28;20507;-69
2024/02/10 11:00:59;;;;;;;19.90;15.50;;;9.70;33.20;;;;;;5032556;28;20417;-70
2024/02/10 11:03:25;;;;;;;16.60;13.63;;;9.80;31.60;;;;;;5032507;28;20425;-69
2024/02/10 11:05:51;;;;;;;21.50;14.67;;;9.70;32.20;;;;;;5032095;28;20434;-68
2024/02/10 11:08:25;;;;;;;16.17;11.70;;;9.80;31.90;;;;;;5030244;28;20422;-69
2024/02/10 11:10:56;;;;;;;16.13;12.03;;;9.90;31.80;;;;;;5032316;28;20186;-69
2024/02/10 11:13:25;;;;;;;17.87;11.90;;;10.00;28.80;;;;;;5032435;28;20791;-70
2024/02/10 11:16:12;;;;;;;15.50;13.03;;;10.10;26.80;;;;;;5032001;28;20453;-69
2024/02/10 11:19:00;;;;;;;19.03;12.77;;;10.20;26.40;;;;;;5031392;28;20546;-69
2024/02/10 11:21:26;;;;;;;13.63;10.40;;;10.30;25.80;;;;;;5031942;28;20814;-69
2024/02/10 11:24:11;;;;;;;14.97;11.93;;;10.40;23.90;;;;;;5031233;28;20413;-68
2024/02/10 11:26:39;;;;;;;17.10;12.47;;;10.50;24.10;;;;;;5031878;28;20948;-68
2024/02/10 11:29:06;;;;;;;17.47;12.40;;;10.50;23.40;;;;;;5031637;28;20425;-69
2024/02/10 11:31:41;;;;;;;16.77;12.07;;;10.60;23.00;;;;;;5031981;28;20414;-69
2024/02/10 11:34:16;;;;;;;14.93;12.20;;;10.60;22.10;;;;;;5032660;28;20498;-69
2024/02/10 11:36:54;;;;;;;13.60;10.90;;;10.40;22.90;;;;;;5032374;28;20498;-68
2024/02/10 11:39:24;;;;;;;19.10;12.27;;;10.50;23.80;;;;;;5012385;28;20466;-70
2024/02/10 11:41:55;;;;;;;17.77;11.60;;;10.60;23.30;;;;;;5012791;28;20407;-71
2024/02/10 11:44:21;;;;;;;16.50;12.00;;;10.50;22.90;;;;;;5010733;28;20427;-70
2024/02/10 11:46:46;;;;;;;16.00;12.33;;;10.40;22.90;;;;;;5017710;28;20533;-69
2024/02/10 11:49:12;;;;;;;18.07;12.60;;;10.40;23.60;;;;;;5020949;28;20211;-69
2024/02/10 11:51:37;;;;;;;21.33;13.27;;;10.50;24.10;;;;;;5018693;28;20277;-70
2024/02/10 11:54:03;;;;;;;14.70;12.73;;;10.70;23.40;;;;;;5034923;28;20694;-71
2024/02/10 11:56:33;;;;;;;16.60;11.67;;;10.90;23.00;;;;;;5032171;28;20271;-69
2024/02/10 11:59:06;;;;;;;16.47;12.10;;;10.90;20.40;;;;;;5031940;28;20746;-70
2024/02/10 12:01:32;;;;;;;14.87;11.97;;;10.80;20.30;;;;;;5030065;28;20489;-69
2024/02/10 12:04:05;;;;;;;21.40;14.23;;;10.60;21.00;;;;;;5031202;28;20414;-69
2024/02/10 12:06:31;;;;;;;17.37;12.80;;;10.60;23.00;;;;;;5030727;28;20430;-70
2024/02/10 12:08:58;;;;;;;17.53;12.97;;;10.80;23.10;;;;;;5031043;28;20425;-69
2024/02/10 12:11:26;;;;;;;17.87;12.73;;;10.90;22.20;;;;;;5030830;28;20921;-69
2024/02/10 12:13:53;;;;;;;18.27;13.63;;;11.00;20.70;;;;;;5031480;28;20417;-69
2024/02/10 12:16:19;;;;;;;17.07;13.70;;;11.00;20.30;;;;;;5031105;28;20461;-69
2024/02/10 12:18:48;;;;;;;15.60;12.90;;;11.20;20.80;;;;;;5031002;28;20457;-69
2024/02/10 12:21:24;;;;;;;13.93;12.40;;;11.40;20.40;;;;;;5024972;28;20191;-68
2024/02/10 12:23:50;;;;;;;16.20;13.53;;;11.50;19.40;;;;;;5016714;28;20480;-69
2024/02/10 12:26:16;;;;;;;16.63;12.77;;;11.50;20.00;;;;;;5011620;28;20925;-69
2024/02/10 12:28:42;;;;;;;17.67;13.23;;;11.70;18.10;;;;;;5011475;28;20454;-75
2024/02/10 12:31:07;;;;;;;16.27;14.10;;;11.80;17.90;;;;;;5014049;28;20456;-67
2024/02/10 12:33:34;;;;;;;16.43;13.23;;;12.10;17.00;;;;;;5014797;28;20709;-68
2024/02/10 12:36:00;;;;;;;18.67;13.70;;;12.10;15.10;;;;;;5026995;28;20548;-69
2024/02/10 12:38:26;;;;;;;14.83;10.70;;;11.90;13.60;;;;;;5032180;28;20515;-69
2024/02/10 12:40:53;;;;;;;15.77;12.50;;;11.80;14.10;;;;;;5031722;28;20612;-69
2024/02/10 12:43:19;;;;;;;13.63;11.00;;;11.60;14.90;;;;;;5031165;28;20426;-69